Hudson above Mohawk River

Physical/Chemical Data

Physical, chemical and biological properties of the surface water that are measured continuously while the patrol boat is underway.

Entero Count (fecal indicator) and Rainfall

35 Samples taken

Sample Date [i] Enterococcus Count

Entero Count

Enterococcus (“Entero”) is a fecal indicating bacterium that lives in the intestines of humans and other warm-blooded animals. It is the EPA preferred indicator for sewage contamination.

Quality Rain, day of (in) Prior Day 2 Days Prior 3 Days Prior Rain 4 Days Total Rain
Sort Sort Sort Sort Sort Sort Sort Sort
10/21/2013 4 Acceptable 0.0 0.0 0.0 0.2 0.2
09/21/2013 20 Acceptable 0.0 0.0 0.0 0.0 0.0
08/19/2013 6 Acceptable 0.0 0.0 0.0 0.0 0.0
07/21/2013 31 Acceptable 0.0 0.0 0.0 0.0 0.0
06/24/2013 30 Acceptable 1.4 0.0 0.0 0.0 1.4
06/04/2013 238 Unacceptable 0.0 0.0 1.1 0.1 1.2
10/15/2012 23 Acceptable 0.4 0.5 0.0 0.5 1.4
09/15/2012 11 Acceptable 0.1 0.0 0.0 0.0 0.1
08/18/2012 15 Acceptable 0.0 0.1 0.0 0.2 0.3
07/21/2012 6 Acceptable 0.0 0.0 0.0 0.2 0.2
06/16/2012 10 Acceptable 0.0 0.0 0.0 0.2 0.2
05/20/2012 11 Acceptable 0.0 0.0 0.0 0.0 0.0
10/16/2011 1733 Unacceptable 0.0 0.1 1.1 0.3 1.5
09/19/2011 11 Acceptable 0.0 0.0 0.0 0.1 0.1
08/21/2011 231 Unacceptable 0.4 0.0 0.0 0.0 0.4
07/14/2011 11 Acceptable 0.0 0.3 0.0 0.0 0.3
07/02/2011 11 Acceptable 0.0 0.0 1.0 1.1 2.1
05/19/2011 91 Beach Advisory 0.8 0.2 0.1 0.5 1.6
10/16/2010 >2420 Unacceptable 0.0 1.0 0.3 0.0 1.3
09/14/2010 15 Acceptable 0.0 0.0 0.0 0.0 0.0
08/21/2010 25 Acceptable 0.0 0.1 0.1 0.0 0.2
07/19/2010 31 Acceptable 0.0 0.2 0.5 0.0 0.7
06/18/2010 23 Acceptable 0.0 0.0 0.2 0.0 0.2
05/25/2010 <1 Acceptable 0.0 0.0 0.0 0.0 0.0
10/23/2009 4 Acceptable 0.0 0.0 0.0 0.0 0.0
09/17/2009 28 Acceptable 0.0 0.0 0.0 0.0 0.0
08/24/2009 276 Unacceptable 0.0 0.3 1.0 1.5 2.8
07/31/2009 >2420 Unacceptable 0.6 0.3 1.0 0.0 1.9
05/15/2009 6 Acceptable 0.0 0.5 0.0 0.0 0.5
10/23/2008 <1 Acceptable 0.0 0.2 0.1 0.0 0.3
09/18/2008 6 Acceptable 0.0 0.0 0.0 0.0 0.0
08/09/2008 41 Acceptable 0.0 0.0 1.3 0.2 1.5
07/17/2008 15 Acceptable 0.0 0.0 0.0 0.1 0.1
06/19/2008 12 Acceptable 0.0 0.4 0.1 0.9 1.4
05/22/2008 12 Acceptable 0.2 0.0 0.0 0.0 0.2

Entero Count (fecal indicator) and Rainfall Correlation

35 Samples taken

All Water Quality Parameters

35 Samples taken

Sample Date [i] Entero Count

Entero Count

Enterococcus (“Entero”) is a fecal indicating bacterium that lives in the intestines of humans and other warm-blooded animals. It is the EPA preferred indicator for sewage contamination.

Quality [i] Temp (f)

Temperature

Hudson River water temperature changes seasonally. Surface water temperature can change on small scales in the river reflecting natural and human influences.

[i] Salinity

Salinity

Estuaries like the Hudson are where freshwaters in rivers meet the sea. Salinity tells us about the relative contribution of fresh and salt water within a particular region of the estuary. 

[i] Chlorophyll

Chlorophyll

A measure of the amount of microscopic algae present in the water. High chlorophyll counts can mean high levels of the nutrients phosphorus and nitrogen, and the threat, or presence, of algae blooms.

[i] Turbidity

Turbidity

Turbidity is a measure of the amount of fine particles suspended in the water. As turbidity rises, light penetration, a key factor for aquatic plants and algae, diminishes.

[i] Oxygen

Oxygen

Oxygen concentrations in the water are closely connected to biological activities. Surface waters are typically in equilibrium with the atmosphere such that the oxygen concentration near the surface is close to fully saturated (100%).

Sort Sort Sort Sort Sort Sort Sort Sort
10/21/2013 4 Acceptable 59.3 0.1 1.5 100 104
09/21/2013 20 Acceptable 67.1 0.1 3.2 24 106
08/19/2013 6 Acceptable 73.8 0.1 1.0 50 106
07/21/2013 31 Acceptable 81.1 0.1 2.2 22 104
06/24/2013 30 Acceptable 73.3 0.1 1.9 16 104
06/04/2013 238 Unacceptable 68.8 0.1 0.6 45 103
10/15/2012 23 Acceptable 56.5 0.1 1.7 10 100
09/15/2012 11 Acceptable 72.5 0.1 0.9 6 110
08/18/2012 15 Acceptable 79.3 0.1 1.4 5 114
07/21/2012 6 Acceptable 81.7 0.1 6.1 11 124
06/16/2012 10 Acceptable 74.1 0.1 1.6 15 108
05/20/2012 11 Acceptable 66.7 0.1 1.0 14 108
10/16/2011 1733 Unacceptable 59.9 0.1 1.7 26 102
09/19/2011 11 Acceptable 64.9 0.1 0.9 7 104
08/21/2011 231 Unacceptable 77.3 0.2 1.5 26 94
07/14/2011 11 Acceptable 77.0 0.1 6.1 8 n/a
07/02/2011 11 Acceptable 73.8 0.1 0.7 7 n/a
05/19/2011 91 Beach Advisory n/a n/a n/a n/a n/a
10/16/2010 >2420 Unacceptable 54.0 0.1 1.9 51 102
09/14/2010 15 Acceptable 69.4 0.1 6.1 4 101
08/21/2010 25 Acceptable 78.0 0.1 2.6 n/a 106
07/19/2010 31 Acceptable 81.3 0.1 8.0 5 92
06/18/2010 23 Acceptable 70.2 0.1 7.0 6 103
05/25/2010 <1 Acceptable 74.1 0.1 7.0 154 112
10/23/2009 4 Acceptable 50.6 0.1 0.4 19 100
09/17/2009 28 Acceptable 68.5 0.2 1.8 8 105
08/24/2009 276 Unacceptable 76.4 0.1 2.0 57 103
07/31/2009 >2420 Unacceptable 72.3 0.1 2.3 107 103
05/15/2009 6 Acceptable 62.3 n/a 1.2 6 108
10/23/2008 <1 Acceptable 52.1 0.1 1.3 0 99
09/18/2008 6 Acceptable n/a n/a n/a n/a n/a
08/09/2008 41 Acceptable n/a n/a n/a n/a n/a
07/17/2008 15 Acceptable 80.3 0.1 2.1 13 110
06/19/2008 12 Acceptable n/a n/a n/a n/a n/a
05/22/2008 12 Acceptable 58.3 0.1 2.5 3 104

Water Quality*

Acceptable (0–60) Beach Advisory (61–110) Unacceptable (111+)

*Single sample thresholds;
Enterococcus count per 100mL

Prior Four Day Rainfall
(in inches)

Dry Weather (0–0.25) Wet Weather (0.25+)

Rainfall data comes from wunderground.com. Wet weather is a common trigger of fecal contamination.

What do the Numbers Mean?

Water Quality scoring is based on the 2012 Recreational Water Quality Criteria from the US Environmental Protection Agency (EPA) for safe swimming. Learn More

About this location:

Waterford, NY
This site has boating, kayaking and fishing. The Waterford drinking water intake is in the vicinity.

Agencies Responsible:

Rensselaer County Dept. of Health: 518-270-2655, Saratoga County Dept. of Health: 518-584-7460 and NYSDEC Region 4: 518-357-2045